Time;durP1;ratioP1;P1;durP2;ratioP2;P2;SDS_P1;SDS_P2;PMS_P1;PMS_P2;Temp;Humidity;BMP_temperature;BMP_pressure;BME280_temperature;BME280_humidity;BME280_pressure;Samples;Min_cycle;Max_cycle;Signal;HPM_P1;HPM_P2
2022/12/23 00:01:01;;;;;;;19.50;8.93;;;;;;;-0.74;nan;-23794.19;5018127;28;20241;-72
2022/12/23 00:03:28;;;;;;;11.60;7.97;;;;;;;-0.75;nan;-23793.75;5014436;28;20233;-71
2022/12/23 00:05:54;;;;;;;11.67;8.47;;;;;;;-0.63;nan;-23797.19;5014009;28;20184;-71
2022/12/23 00:08:20;;;;;;;14.47;7.70;;;;;;;-1.07;nan;-23784.72;5013957;28;20181;-71
2022/12/23 00:10:47;;;;;;;19.03;8.97;;;;;;;-1.01;nan;-23786.44;5013970;28;20184;-70
2022/12/23 00:16:05;;;;;;;10.77;7.43;;;;;;;-0.51;nan;-23800.63;5014372;28;20608;-70
2022/12/23 00:18:59;;;;;;;15.07;8.17;;;;;;;-0.22;nan;-23808.81;5013775;28;20358;-71
2022/12/23 00:21:27;;;;;;;16.63;8.67;;;;;;;-0.72;nan;-23794.63;5013190;28;20212;-71
2022/12/23 00:23:52;;;;;;;18.57;8.60;;;;;;;-0.94;nan;-23788.59;5013807;28;20270;-71
2022/12/23 00:26:23;;;;;;;18.90;10.00;;;;;;;-0.68;nan;-23795.75;5013607;28;20286;-70
2022/12/23 00:28:49;;;;;;;14.03;8.20;;;;;;;-1.03;nan;-23786.03;5013925;28;20700;-71
2022/12/23 00:31:17;;;;;;;14.40;8.90;;;;;;;-0.75;nan;-23793.91;5012224;28;20176;-72
2022/12/23 00:33:44;;;;;;;9.10;7.43;;;;;;;-0.82;nan;-23791.75;5012742;28;20219;-71
2022/12/23 00:36:27;;;;;;;20.37;9.37;;;;;;;-0.54;nan;-23799.91;5012806;28;20543;-71
2022/12/23 00:44:20;;;;;;;11.30;7.13;;;;;;;-0.64;nan;-23796.91;5013145;28;20218;-72
2022/12/23 00:46:46;;;;;;;14.93;8.73;;;;;;;-1.09;nan;-23784.28;5012910;28;20199;-71
2022/12/23 00:52:01;;;;;;;14.23;7.33;;;;;;;-0.76;nan;-23793.47;5012687;28;20263;-71
2022/12/23 00:54:27;;;;;;;11.83;7.37;;;;;;;-2.02;nan;-23757.91;5012344;28;20164;-71
2022/12/23 00:56:52;;;;;;;17.43;8.80;;;;;;;-1.30;nan;-23778.28;5012425;28;20186;-71
2022/12/23 00:59:18;;;;;;;11.83;6.63;;;;;;;-1.23;nan;-23780.13;5012865;28;20564;-72
2022/12/23 01:07:11;;;;;;;10.43;6.70;;;;;;;-0.98;nan;-23787.31;5012401;28;20238;-71
2022/12/23 01:09:37;;;;;;;12.10;8.17;;;;;;;-1.28;nan;-23778.84;5017651;28;20184;-71
2022/12/23 01:12:02;;;;;;;12.30;7.23;;;;;;;-0.95;nan;-23788.31;5012730;28;20622;-71
2022/12/23 01:14:28;;;;;;;14.00;7.70;;;;;;;-0.90;nan;-23789.75;5014985;28;20609;-71
2022/12/23 01:16:54;;;;;;;14.97;6.17;;;;;;;-1.25;nan;-23779.56;5012372;28;20725;-71
2022/12/23 01:19:19;;;;;;;15.90;8.03;;;;;;;-1.35;nan;-23776.97;5012720;28;20184;-71
2022/12/23 01:21:45;;;;;;;15.57;9.90;;;;;;;-0.99;nan;-23787.03;5012352;28;20203;-70
2022/12/23 01:24:10;;;;;;;15.03;7.53;;;;;;;-0.95;nan;-23788.16;5012567;28;20318;-71
2022/12/23 01:26:35;;;;;;;23.70;8.73;;;;;;;-1.17;nan;-23781.84;5012613;28;20183;-71
2022/12/23 01:29:02;;;;;;;11.03;7.13;;;;;;;-0.82;nan;-23791.91;5012339;28;20632;-71
2022/12/23 01:31:28;;;;;;;17.30;8.73;;;;;;;-1.45;nan;-23774.13;5012735;28;20182;-71
2022/12/23 01:33:54;;;;;;;14.00;8.23;;;;;;;-1.30;nan;-23778.13;5012160;28;20267;-71
2022/12/23 01:36:20;;;;;;;15.83;9.03;;;;;;;-1.26;nan;-23779.41;5011868;28;20226;-72
2022/12/23 01:38:46;;;;;;;12.03;7.83;;;;;;;-1.22;nan;-23780.56;5012291;28;20215;-71
2022/12/23 01:44:42;;;;;;;19.37;9.13;;;;;;;-0.91;nan;-23789.47;5012032;28;20203;-72
2022/12/23 01:47:13;;;;;;;14.07;8.83;;;;;;;-1.36;nan;-23776.56;5012057;28;20167;-71
2022/12/23 01:49:39;;;;;;;16.70;7.43;;;;;;;-1.31;nan;-23777.84;5011838;28;20199;-71
2022/12/23 01:52:05;;;;;;;13.57;7.90;;;;;;;-1.04;nan;-23785.72;5016500;28;20172;-71
2022/12/23 01:54:31;;;;;;;14.10;6.97;;;;;;;-0.65;nan;-23796.78;5012092;28;20622;-71
2022/12/23 01:56:57;;;;;;;16.00;7.87;;;;;;;-0.65;nan;-23796.63;5011900;28;20179;-72
2022/12/23 02:04:51;;;;;;;15.10;8.00;;;;;;;-0.54;nan;-23799.91;5011795;28;20282;-71
2022/12/23 02:10:02;;;;;;;11.60;7.87;;;;;;;-1.19;nan;-23781.44;5011652;28;20184;-72
2022/12/23 02:13:10;;;;;;;13.53;9.50;;;;;;;-0.74;nan;-23794.19;5012145;28;20238;-71
2022/12/23 02:18:47;;;;;;;10.20;6.30;;;;;;;-0.74;nan;-23794.19;5011757;28;20196;-71
2022/12/23 02:21:48;;;;;;;11.03;5.93;;;;;;;-0.71;nan;-23794.91;5010748;28;20163;-71
2022/12/23 02:24:33;;;;;;;18.37;7.03;;;;;;;-0.70;nan;-23795.19;5011859;28;20197;-71
2022/12/23 02:27:12;;;;;;;9.30;7.17;;;;;;;-0.71;nan;-23794.91;5016461;28;20639;-71
2022/12/23 02:30:02;;;;;;;16.40;7.43;;;;;;;-0.72;nan;-23794.63;5012111;28;20183;-72
2022/12/23 02:33:13;;;;;;;10.40;5.80;;;;;;;-1.15;nan;-23782.44;4992447;28;20679;-71
2022/12/23 02:35:59;;;;;;;9.07;6.37;;;;;;;-0.57;nan;-23798.91;4983616;28;20188;-71
2022/12/23 02:38:58;;;;;;;9.37;5.77;;;;;;;-0.73;nan;-23794.47;5010333;28;20278;-70
2022/12/23 02:42:08;;;;;;;10.13;6.10;;;;;;;-0.73;nan;-23794.47;5008441;28;20645;-70
2022/12/23 02:45:22;;;;;;;12.47;6.37;;;;;;;-0.85;nan;-23791.03;5010101;28;20223;-71
2022/12/23 02:48:29;;;;;;;12.37;6.93;;;;;;;-0.86;nan;-23790.75;5011547;28;20614;-71
2022/12/23 02:50:57;;;;;;;9.00;5.97;;;;;;;-0.85;nan;-23791.03;5015173;28;20187;-70
2022/12/23 02:53:37;;;;;;;22.47;7.83;;;;;;;-0.93;nan;-23788.88;5015048;28;20239;-70
2022/12/23 02:56:05;;;;;;;12.20;5.40;;;;;;;-0.96;nan;-23788.03;5015448;28;20251;-70
2022/12/23 02:58:39;;;;;;;11.67;6.50;;;;;;;-1.18;nan;-23781.56;5014802;28;20271;-70
2022/12/23 03:01:06;;;;;;;10.97;7.60;;;;;;;-1.22;nan;-23780.56;5015439;28;20176;-70
2022/12/23 03:03:34;;;;;;;10.10;5.70;;;;;;;-1.16;nan;-23782.28;5016915;28;20675;-71
2022/12/23 03:06:01;;;;;;;8.63;6.27;;;;;;;-1.13;nan;-23783.16;5014777;28;20188;-72
2022/12/23 03:08:35;;;;;;;8.87;6.73;;;;;;;-0.92;nan;-23789.16;5015331;28;20165;-70
2022/12/23 03:11:03;;;;;;;24.00;8.07;;;;;;;-0.68;nan;-23795.91;5015476;28;20187;-70
2022/12/23 03:14:03;;;;;;;10.33;6.60;;;;;;;-0.92;nan;-23789.03;5015499;28;20199;-70
2022/12/23 03:16:37;;;;;;;14.73;6.83;;;;;;;-0.63;nan;-23797.19;5013515;28;20200;-71
2022/12/23 03:19:14;;;;;;;10.50;6.43;;;;;;;-0.60;nan;-23798.06;5014444;28;20175;-71
2022/12/23 03:21:45;;;;;;;15.40;5.87;;;;;;;-1.02;nan;-23786.31;5014660;28;20235;-71
2022/12/23 03:24:32;;;;;;;8.60;6.03;;;;;;;-0.60;nan;-23798.06;5014936;28;20208;-70
2022/12/23 03:27:07;;;;;;;6.90;4.53;;;;;;;-0.62;nan;-23797.50;5014976;28;20655;-71
2022/12/23 03:29:53;;;;;;;7.20;5.13;;;;;;;-0.61;nan;-23797.78;5014499;28;20163;-71
2022/12/23 03:32:21;;;;;;;10.10;5.47;;;;;;;-0.86;nan;-23790.59;5014360;28;20190;-71
2022/12/23 03:34:48;;;;;;;19.43;6.87;;;;;;;-1.15;nan;-23782.56;5014713;28;20230;-71
2022/12/23 03:37:18;;;;;;;10.77;6.50;;;;;;;-0.88;nan;-23790.31;5015232;28;20203;-71
2022/12/23 03:40:04;;;;;;;7.70;5.13;;;;;;;-1.26;nan;-23779.41;5014456;28;20193;-71
2022/12/23 03:42:34;;;;;;;11.37;5.60;;;;;;;-1.18;nan;-23781.72;5017695;28;20187;-70
2022/12/23 03:45:06;;;;;;;8.17;5.70;;;;;;;-1.96;nan;-23759.63;5015628;28;20207;-71
2022/12/23 03:47:49;;;;;;;12.63;6.47;;;;;;;-0.73;nan;-23794.34;5013711;28;20592;-71
2022/12/23 03:50:18;;;;;;;12.20;6.07;;;;;;;-0.84;nan;-23791.31;5014402;28;20203;-71
2022/12/23 03:53:26;;;;;;;10.80;6.23;;;;;;;-0.59;nan;-23798.50;5014594;28;20207;-70
2022/12/23 03:55:58;;;;;;;9.30;5.77;;;;;;;-0.71;nan;-23795.06;5011816;28;20206;-70
2022/12/23 03:58:35;;;;;;;7.03;4.67;;;;;;;-0.84;nan;-23791.19;5011668;28;20230;-70
2022/12/23 04:01:04;;;;;;;7.37;5.97;;;;;;;-0.72;nan;-23794.63;5012844;28;20274;-70
2022/12/23 04:03:39;;;;;;;6.20;4.73;;;;;;;-0.88;nan;-23790.19;5011912;28;20296;-70
2022/12/23 04:06:10;;;;;;;8.20;6.47;;;;;;;-1.20;nan;-23781.00;5013859;28;20716;-71
2022/12/23 04:08:37;;;;;;;8.23;5.10;;;;;;;-0.82;nan;-23791.75;5013731;28;20168;-70
2022/12/23 04:11:04;;;;;;;9.83;6.10;;;;;;;-1.16;nan;-23782.16;5017307;28;20202;-71
2022/12/23 04:13:30;;;;;;;9.23;5.20;;;;;;;-1.22;nan;-23780.44;5018558;28;20206;-71
2022/12/23 04:16:00;;;;;;;15.77;6.67;;;;;;;-0.83;nan;-23791.47;5017543;28;20234;-70
2022/12/23 04:18:26;;;;;;;8.67;5.57;;;;;;;-1.28;nan;-23778.84;5017168;28;20635;-70
2022/12/23 04:20:52;;;;;;;10.37;5.53;;;;;;;-1.43;nan;-23774.53;5018440;28;20183;-70
2022/12/23 04:23:17;;;;;;;7.43;4.53;;;;;;;-1.30;nan;-23778.28;5016876;28;20227;-70
2022/12/23 04:25:43;;;;;;;13.87;6.27;;;;;;;-1.05;nan;-23785.44;5016949;28;20179;-71
2022/12/23 04:28:08;;;;;;;11.80;7.10;;;;;;;-1.26;nan;-23779.41;5018551;28;20184;-71
2022/12/23 04:30:34;;;;;;;8.60;5.87;;;;;;;-1.36;nan;-23776.56;5017610;28;20184;-71
2022/12/23 04:32:59;;;;;;;16.63;8.73;;;;;;;-1.43;nan;-23774.53;5017470;28;20188;-72
2022/12/23 04:35:25;;;;;;;20.57;8.27;;;;;;;-0.92;nan;-23789.16;5017495;28;20182;-71
2022/12/23 04:37:50;;;;;;;19.13;6.47;;;;;;;-0.99;nan;-23787.03;5018077;28;20273;-71
2022/12/23 04:40:16;;;;;;;6.47;5.40;;;;;;;-1.46;nan;-23773.81;5017141;28;20215;-71
2022/12/23 04:42:41;;;;;;;11.87;6.37;;;;;;;-1.41;nan;-23775.25;5017934;28;20184;-70
2022/12/23 04:45:07;;;;;;;6.10;5.00;;;;;;;-0.79;nan;-23792.63;5017848;28;20629;-71
2022/12/23 04:47:34;;;;;;;11.50;5.10;;;;;;;-1.04;nan;-23785.59;5016774;28;20187;-70
2022/12/23 04:49:59;;;;;;;11.03;7.63;;;;;;;-0.91;nan;-23789.31;5017650;28;20183;-71
2022/12/23 04:52:25;;;;;;;14.33;7.47;;;;;;;-1.20;nan;-23781.00;5016177;28;20184;-71
2022/12/23 04:54:50;;;;;;;14.17;6.27;;;;;;;-1.27;nan;-23779.13;5016619;28;20674;-71
2022/12/23 04:57:16;;;;;;;7.00;5.23;;;;;;;-1.15;nan;-23782.56;5016990;28;20609;-73
2022/12/23 04:59:41;;;;;;;13.57;7.33;;;;;;;-1.09;nan;-23784.28;5017560;28;20167;-71
2022/12/23 05:02:07;;;;;;;8.87;5.80;;;;;;;-0.73;nan;-23794.34;5017973;28;20191;-71
2022/12/23 05:04:33;;;;;;;11.30;7.27;;;;;;;-0.80;nan;-23792.31;5014959;28;20306;-71
2022/12/23 05:06:58;;;;;;;13.57;7.60;;;;;;;-0.77;nan;-23793.19;5016858;28;20180;-71
2022/12/23 05:09:23;;;;;;;9.73;6.47;;;;;;;-1.09;nan;-23784.16;5016662;28;20207;-71
2022/12/23 05:11:49;;;;;;;16.77;6.13;;;;;;;-1.01;nan;-23786.44;5017237;28;20222;-71
2022/12/23 05:14:14;;;;;;;10.13;7.10;;;;;;;-1.43;nan;-23774.53;5016598;28;20259;-71
2022/12/23 05:16:40;;;;;;;13.77;7.17;;;;;;;-1.44;nan;-23774.25;5015931;28;20273;-71
2022/12/23 05:19:05;;;;;;;12.07;7.20;;;;;;;-1.49;nan;-23772.81;5017066;28;20210;-71
2022/12/23 05:21:31;;;;;;;14.30;6.63;;;;;;;-1.03;nan;-23785.88;5014426;28;20196;-72
2022/12/23 05:23:56;;;;;;;12.93;7.33;;;;;;;-1.27;nan;-23779.13;5011766;28;20628;-71
2022/12/23 05:26:22;;;;;;;9.63;5.77;;;;;;;-0.86;nan;-23790.59;5014412;28;20198;-72
2022/12/23 05:28:47;;;;;;;12.10;6.17;;;;;;;-1.26;nan;-23779.41;5012621;28;20202;-71
2022/12/23 05:31:13;;;;;;;11.73;6.77;;;;;;;-0.88;nan;-23790.19;5017015;28;20210;-71
2022/12/23 05:33:39;;;;;;;12.70;6.93;;;;;;;-1.24;nan;-23779.84;5011979;28;20537;-72
2022/12/23 05:36:05;;;;;;;8.43;6.23;;;;;;;-1.13;nan;-23783.16;5011962;28;20262;-72
2022/12/23 05:38:30;;;;;;;16.70;9.13;;;;;;;-0.94;nan;-23788.47;5011784;28;20766;-72
2022/12/23 05:40:56;;;;;;;11.80;6.07;;;;;;;-1.35;nan;-23776.97;5012090;28;20267;-71
2022/12/23 05:43:22;;;;;;;12.33;7.33;;;;;;;-0.84;nan;-23791.19;5011702;28;20176;-71
2022/12/23 05:45:48;;;;;;;9.33;6.43;;;;;;;-1.34;nan;-23777.13;5011963;28;20252;-71
2022/12/23 05:48:14;;;;;;;9.70;5.40;;;;;;;-0.81;nan;-23792.03;5011674;28;20178;-73
2022/12/23 05:50:39;;;;;;;13.77;8.93;;;;;;;-0.76;nan;-23793.63;5011352;28;20249;-71
2022/12/23 05:53:05;;;;;;;16.03;6.73;;;;;;;-0.68;nan;-23795.75;5010396;28;20179;-72
2022/12/23 05:55:31;;;;;;;13.93;8.40;;;;;;;-1.21;nan;-23780.72;5011502;28;20212;-72
2022/12/23 05:57:56;;;;;;;13.47;7.83;;;;;;;-1.24;nan;-23779.84;5011835;28;20180;-72
2022/12/23 06:00:22;;;;;;;18.53;8.47;;;;;;;-0.88;nan;-23790.31;5016468;28;20196;-72
2022/12/23 06:02:47;;;;;;;17.73;9.47;;;;;;;-0.72;nan;-23794.63;5010487;28;20176;-71
2022/12/23 06:05:13;;;;;;;20.63;10.17;;;;;;;-1.44;nan;-23774.25;5011091;28;20608;-72
2022/12/23 06:07:39;;;;;;;17.20;10.53;;;;;;;-0.90;nan;-23789.75;5009999;28;20629;-71
2022/12/23 06:10:07;;;;;;;23.60;9.03;;;;;;;-0.79;nan;-23792.63;5011257;28;20188;-71
2022/12/23 06:12:32;;;;;;;21.57;10.23;;;;;;;-0.98;nan;-23787.44;5011496;28;20283;-71
2022/12/23 06:14:58;;;;;;;19.23;8.90;;;;;;;-1.05;nan;-23785.31;5010987;28;20259;-70
2022/12/23 06:17:23;;;;;;;14.17;9.17;;;;;;;-0.96;nan;-23787.88;5008910;28;20667;-75
2022/12/23 06:19:49;;;;;;;14.90;8.10;;;;;;;-0.93;nan;-23788.88;5007629;28;20723;-74
2022/12/23 06:22:16;;;;;;;15.23;7.60;;;;;;;-0.86;nan;-23790.59;5012437;28;20259;-73
2022/12/23 06:24:43;;;;;;;14.90;6.37;;;;;;;-0.77;nan;-23793.19;5015116;28;20207;-72
2022/12/23 06:27:08;;;;;;;15.53;9.37;;;;;;;-1.01;nan;-23786.59;5015100;28;20185;-74
2022/12/23 06:29:33;;;;;;;10.03;6.70;;;;;;;-1.05;nan;-23785.44;5014693;28;20179;-74
2022/12/23 06:31:59;;;;;;;11.53;7.60;;;;;;;-1.05;nan;-23785.44;5014219;28;20586;-74
2022/12/23 06:34:24;;;;;;;16.00;8.07;;;;;;;-0.52;nan;-23800.34;5015244;28;20180;-72
2022/12/23 06:36:50;;;;;;;16.63;7.90;;;;;;;-0.90;nan;-23789.59;5014898;28;20222;-72
2022/12/23 06:39:15;;;;;;;11.70;6.93;;;;;;;-0.48;nan;-23801.66;5013654;28;20180;-72
2022/12/23 06:41:40;;;;;;;14.80;8.03;;;;;;;-0.35;nan;-23805.22;5013830;28;20189;-72
2022/12/23 06:44:06;;;;;;;15.43;8.23;;;;;;;-0.66;nan;-23796.34;5015202;28;20200;-71
2022/12/23 06:46:31;;;;;;;14.87;8.37;;;;;;;-0.71;nan;-23795.06;5015016;28;20638;-71
2022/12/23 06:48:56;;;;;;;13.87;7.13;;;;;;;-0.23;nan;-23808.53;5015465;28;20184;-71
2022/12/23 06:51:22;;;;;;;13.37;8.13;;;;;;;-0.25;nan;-23808.09;5015215;28;20282;-71
2022/12/23 06:53:47;;;;;;;12.33;7.47;;;;;;;-0.14;nan;-23811.25;5015224;28;20254;-72
2022/12/23 06:56:13;;;;;;;18.13;10.63;;;;;;;-0.33;nan;-23805.66;5014793;28;20196;-71
2022/12/23 06:58:38;;;;;;;15.13;8.13;;;;;;;-0.21;nan;-23809.09;5014878;28;20188;-71
2022/12/23 07:01:04;;;;;;;22.17;11.10;;;;;;;-0.30;nan;-23806.66;5014601;28;20226;-72
2022/12/23 07:03:29;;;;;;;12.40;8.13;;;;;;;-0.62;nan;-23797.50;5014185;28;20585;-72
2022/12/23 07:05:55;;;;;;;13.00;7.87;;;;;;;-0.14;nan;-23811.09;5014533;28;20204;-71
2022/12/23 07:08:20;;;;;;;13.03;7.37;;;;;;;-0.31;nan;-23806.38;5014820;28;20642;-72
2022/12/23 07:10:45;;;;;;;15.57;9.17;;;;;;;-0.62;nan;-23797.50;5014744;28;20176;-73
2022/12/23 07:13:11;;;;;;;12.03;8.00;;;;;;;-0.02;nan;-23814.69;5014514;28;20196;-72
2022/12/23 07:15:37;;;;;;;20.73;9.97;;;;;;;0.08;nan;-23817.25;5014802;28;20180;-73
2022/12/23 07:18:03;;;;;;;19.53;9.23;;;;;;;-0.41;nan;-23803.50;5014334;28;20264;-72
2022/12/23 07:20:28;;;;;;;20.73;9.67;;;;;;;-0.06;nan;-23813.53;5017102;28;20266;-72
2022/12/23 07:22:54;;;;;;;17.67;10.00;;;;;;;0.46;nan;-23828.13;5014246;28;20213;-70
2022/12/23 07:25:20;;;;;;;20.53;9.90;;;;;;;0.59;nan;-23831.84;5014600;28;20201;-72
2022/12/23 07:27:45;;;;;;;18.43;10.23;;;;;;;0.21;nan;-23820.97;5015046;28;20290;-71
2022/12/23 07:30:11;;;;;;;14.03;8.53;;;;;;;0.67;nan;-23834.16;5014602;28;20185;-72
2022/12/23 07:32:36;;;;;;;14.40;8.20;;;;;;;0.69;nan;-23834.56;5013756;28;20175;-72
2022/12/23 07:35:02;;;;;;;15.27;8.77;;;;;;;0.74;nan;-23836.16;5012787;28;20190;-72
2022/12/23 07:37:27;;;;;;;17.43;9.10;;;;;;;0.96;nan;-23842.16;5014274;28;20646;-72
2022/12/23 07:39:53;;;;;;;19.73;8.97;;;;;;;0.72;nan;-23835.44;5014037;28;20230;-71
2022/12/23 07:42:18;;;;;;;9.00;6.43;;;;;;;1.03;nan;-23844.16;5014150;28;20176;-72
2022/12/23 07:44:43;;;;;;;9.70;5.27;;;;;;;1.15;nan;-23847.59;5013726;28;20192;-72
2022/12/23 07:47:09;;;;;;;14.23;8.20;;;;;;;1.00;nan;-23843.44;5013971;28;20175;-72
2022/12/23 07:49:34;;;;;;;12.57;8.20;;;;;;;0.98;nan;-23842.72;5013600;28;20176;-71
2022/12/23 07:52:00;;;;;;;17.83;7.57;;;;;;;1.34;nan;-23853.03;5012330;28;20214;-71
2022/12/23 07:54:25;;;;;;;16.93;8.93;;;;;;;1.64;nan;-23861.59;5015704;28;20186;-71
2022/12/23 07:56:51;;;;;;;19.17;8.10;;;;;;;1.69;nan;-23863.03;5015176;28;20679;-71
2022/12/23 07:59:16;;;;;;;13.13;8.37;;;;;;;1.67;nan;-23862.47;5015985;28;20188;-72
2022/12/23 08:01:42;;;;;;;14.33;8.03;;;;;;;1.46;nan;-23856.47;5018472;28;20211;-72
2022/12/23 08:04:08;;;;;;;16.60;7.20;;;;;;;1.74;nan;-23864.31;5046710;28;20227;-73
2022/12/23 08:06:35;;;;;;;9.83;5.47;;;;;;;1.91;nan;-23869.03;5016231;28;20528;-72
2022/12/23 08:09:01;;;;;;;7.63;4.93;;;;;;;2.04;nan;-23872.88;5013691;28;20180;-71
2022/12/23 08:11:26;;;;;;;8.23;5.77;;;;;;;2.29;nan;-23879.88;5013693;28;20187;-71
2022/12/23 08:13:52;;;;;;;8.50;5.17;;;;;;;1.99;nan;-23871.47;5013889;28;20242;-72
2022/12/23 08:16:17;;;;;;;7.80;5.10;;;;;;;2.09;nan;-23874.16;5014021;28;20180;-72
2022/12/23 08:18:43;;;;;;;10.90;5.13;;;;;;;2.37;nan;-23882.16;5018085;28;20655;-72
2022/12/23 08:21:14;;;;;;;13.50;6.23;;;;;;;2.32;nan;-23880.59;5013397;28;20184;-72
2022/12/23 08:23:40;;;;;;;13.30;5.97;;;;;;;2.90;nan;-23897.00;5012071;28;20179;-72
2022/12/23 08:26:11;;;;;;;14.50;6.57;;;;;;;3.01;nan;-23900.16;5013444;28;20184;-72
2022/12/23 08:28:38;;;;;;;9.57;6.30;;;;;;;2.98;nan;-23899.44;5013369;28;20164;-72
2022/12/23 08:31:11;;;;;;;13.40;7.93;;;;;;;3.39;nan;-23910.84;5013508;28;20194;-72
2022/12/23 08:33:38;;;;;;;8.23;6.37;;;;;;;3.37;nan;-23910.41;5013234;28;20259;-72
2022/12/23 08:36:05;;;;;;;11.30;6.60;;;;;;;3.31;nan;-23908.56;5013441;28;20180;-72
2022/12/23 08:38:31;;;;;;;14.17;7.90;;;;;;;3.22;nan;-23906.13;5013391;28;20242;-71
2022/12/23 08:40:57;;;;;;;18.03;8.27;;;;;;;3.54;nan;-23915.25;5012956;28;20574;-72
2022/12/23 08:43:22;;;;;;;9.77;6.30;;;;;;;3.70;nan;-23919.69;5012251;28;20275;-72
2022/12/23 08:45:48;;;;;;;15.97;8.73;;;;;;;4.17;nan;-23932.94;5013129;28;20167;-71
2022/12/23 08:48:13;;;;;;;8.70;6.63;;;;;;;3.88;nan;-23924.66;5013111;28;20226;-72
2022/12/23 08:50:41;;;;;;;12.20;5.97;;;;;;;4.23;nan;-23934.63;5013032;28;20173;-71
2022/12/23 08:53:06;;;;;;;11.17;7.23;;;;;;;4.21;nan;-23934.06;5012438;28;20259;-72
2022/12/23 08:55:43;;;;;;;12.57;7.30;;;;;;;4.33;nan;-23937.47;5012689;28;20255;-72
2022/12/23 08:58:09;;;;;;;12.80;7.10;;;;;;;4.51;nan;-23942.31;5013058;28;20258;-72
2022/12/23 09:00:35;;;;;;;11.90;6.97;;;;;;;4.26;nan;-23935.50;5016548;28;20176;-72
2022/12/23 09:03:01;;;;;;;14.70;7.23;;;;;;;4.53;nan;-23942.91;5012138;28;20709;-72
2022/12/23 09:05:26;;;;;;;11.07;6.60;;;;;;;4.71;nan;-23948.16;5012502;28;20710;-72
2022/12/23 09:07:52;;;;;;;12.20;6.40;;;;;;;4.59;nan;-23944.59;5012824;28;20226;-72
2022/12/23 09:10:18;;;;;;;15.80;6.47;;;;;;;4.73;nan;-23948.59;5012400;28;20210;-72
2022/12/23 09:12:44;;;;;;;10.30;7.40;;;;;;;4.87;nan;-23952.72;5012508;28;20604;-72
2022/12/23 09:15:09;;;;;;;13.97;6.83;;;;;;;5.15;nan;-23960.53;5012901;28;20184;-72
2022/12/23 09:17:34;;;;;;;10.17;7.27;;;;;;;5.64;nan;-23974.31;5012503;28;20180;-72
2022/12/23 09:20:00;;;;;;;11.70;7.47;;;;;;;5.53;nan;-23971.19;5011968;28;20671;-73
2022/12/23 09:22:25;;;;;;;12.83;8.27;;;;;;;5.74;nan;-23977.03;5011032;28;20179;-72
2022/12/23 09:24:51;;;;;;;15.20;8.70;;;;;;;6.32;nan;-23993.22;5015299;28;20207;-72
2022/12/23 09:27:16;;;;;;;14.50;7.90;;;;;;;6.44;nan;-23996.78;5013312;28;20188;-72
2022/12/23 09:29:42;;;;;;;14.50;8.77;;;;;;;6.60;nan;-24001.31;5012634;28;20589;-73
2022/12/23 09:32:07;;;;;;;17.60;8.13;;;;;;;6.59;nan;-24001.03;5011477;28;20188;-72
2022/12/23 09:34:33;;;;;;;16.90;8.17;;;;;;;6.85;nan;-24008.25;5010706;28;20254;-73
2022/12/23 09:36:58;;;;;;;12.70;7.20;;;;;;;6.52;nan;-23999.03;5012096;28;20182;-73
2022/12/23 09:39:24;;;;;;;18.20;9.27;;;;;;;6.50;nan;-23998.47;5011779;28;20168;-73
2022/12/23 09:42:11;;;;;;;24.50;9.03;;;;;;;6.89;nan;-24009.41;5012070;28;20601;-73
2022/12/23 09:44:46;;;;;;;18.37;8.97;;;;;;;7.20;nan;-24017.91;5011516;28;20262;-72
2022/12/23 09:47:19;;;;;;;17.53;8.70;;;;;;;7.30;nan;-24020.75;5011526;28;20559;-73
2022/12/23 09:49:50;;;;;;;14.30;7.27;;;;;;;7.26;nan;-24019.63;5012262;28;20259;-73
2022/12/23 09:52:24;;;;;;;16.83;9.83;;;;;;;7.53;nan;-24027.28;5011973;28;20208;-72
2022/12/23 09:54:53;;;;;;;16.00;9.20;;;;;;;7.39;nan;-24023.31;5013352;28;20191;-75
2022/12/23 09:57:25;;;;;;;16.83;8.17;;;;;;;7.80;nan;-24034.78;5011969;28;20184;-72
2022/12/23 10:00:12;;;;;;;11.33;7.70;;;;;;;7.83;nan;-24035.63;5010361;28;20283;-72
2022/12/23 10:02:46;;;;;;;13.57;7.40;;;;;;;7.61;nan;-24029.53;5011344;28;20187;-75
2022/12/23 10:05:15;;;;;;;19.03;8.63;;;;;;;7.98;nan;-24039.88;5012059;28;20264;-72
2022/12/23 10:07:48;;;;;;;15.17;9.30;;;;;;;7.75;nan;-24033.38;5011730;28;20207;-70
2022/12/23 10:10:20;;;;;;;14.97;8.03;;;;;;;7.39;nan;-24023.31;5011072;28;20175;-73
2022/12/23 10:12:51;;;;;;;13.00;7.63;;;;;;;7.34;nan;-24022.03;5011704;28;20176;-77
2022/12/23 10:15:27;;;;;;;15.27;7.53;;;;;;;7.82;nan;-24035.34;5011033;28;20179;-74
2022/12/23 10:17:57;;;;;;;12.20;6.87;;;;;;;7.54;nan;-24027.69;5011385;28;20198;-72
2022/12/23 10:20:39;;;;;;;17.83;7.83;;;;;;;7.57;nan;-24028.41;5011351;28;20208;-70
2022/12/23 10:23:12;;;;;;;13.40;8.17;;;;;;;8.13;nan;-24044.00;5011360;28;20176;-73
2022/12/23 10:25:44;;;;;;;13.27;7.87;;;;;;;8.04;nan;-24041.56;5010863;28;20246;-73
2022/12/23 10:28:10;;;;;;;12.53;7.80;;;;;;;8.03;nan;-24041.16;5009825;28;20172;-71
2022/12/23 10:30:39;;;;;;;16.83;8.47;;;;;;;8.27;nan;-24047.94;5011386;28;20638;-71
2022/12/23 10:33:20;;;;;;;11.02;7.30;;;;;;;8.30;nan;-24048.94;5012567;28;20207;-72
2022/12/23 10:36:13;;;;;;;19.73;9.00;;;;;;;8.25;nan;-24047.53;5011502;28;20230;-70
2022/12/23 10:39:01;;;;;;;17.20;8.07;;;;;;;7.91;nan;-24037.88;5011157;28;20184;-70
2022/12/23 10:41:52;;;;;;;17.87;10.57;;;;;;;8.02;nan;-24041.00;5011374;28;20711;-71
2022/12/23 10:44:39;;;;;;;25.50;9.30;;;;;;;8.24;nan;-24047.09;5011303;28;20200;-70
2022/12/23 10:47:38;;;;;;;19.05;9.98;;;;;;;8.22;nan;-24046.69;5010891;28;20184;-70
2022/12/23 10:50:24;;;;;;;20.67;10.52;;;;;;;8.53;nan;-24055.16;5011855;28;20543;-70
2022/12/23 10:52:51;;;;;;;25.03;9.83;;;;;;;8.15;nan;-24044.69;5011136;28;20169;-70
2022/12/23 10:55:31;;;;;;;19.05;10.10;;;;;;;7.76;nan;-24033.78;5011218;28;20231;-71
2022/12/23 10:58:05;;;;;;;19.40;9.85;;;;;;;8.29;nan;-24048.50;5011337;28;20172;-70
2022/12/23 11:00:30;;;;;;;18.88;9.50;;;;;;;7.83;nan;-24035.78;5016432;28;20214;-71
2022/12/23 11:03:05;;;;;;;16.25;9.32;;;;;;;7.92;nan;-24038.31;5010883;28;20251;-71
2022/12/23 11:05:32;;;;;;;16.88;9.55;;;;;;;7.88;nan;-24037.19;4991146;28;20657;-71
2022/12/23 11:07:57;;;;;;;20.48;9.73;;;;;;;8.63;nan;-24058.16;5000272;28;20230;-72
2022/12/23 11:10:28;;;;;;;21.30;9.82;;;;;;;8.55;nan;-24055.88;5014759;28;20587;-71
2022/12/23 11:12:53;;;;;;;19.90;10.82;;;;;;;8.56;nan;-24056.03;5014654;28;20231;-71
2022/12/23 11:15:37;;;;;;;26.88;12.30;;;;;;;8.83;nan;-24063.81;5015167;28;20631;-71
2022/12/23 11:18:02;;;;;;;31.75;11.90;;;;;;;8.86;nan;-24064.66;5014478;28;20214;-71
2022/12/23 11:20:28;;;;;;;20.02;10.23;;;;;;;9.05;nan;-24069.88;5013839;28;20172;-71
2022/12/23 11:22:58;;;;;;;22.77;11.60;;;;;;;8.65;nan;-24058.72;5014882;28;20249;-71
2022/12/23 11:25:30;;;;;;;23.10;11.57;;;;;;;9.10;nan;-24071.16;5014592;28;20208;-70
2022/12/23 11:27:57;;;;;;;22.85;11.07;;;;;;;8.90;nan;-24065.50;5014740;28;20639;-70
2022/12/23 11:30:22;;;;;;;29.70;12.65;;;;;;;8.77;nan;-24062.09;5014701;28;22549;-70
2022/12/23 11:32:49;;;;;;;24.58;11.63;;;;;;;8.59;nan;-24057.00;5017685;28;20196;-71
2022/12/23 11:35:23;;;;;;;26.85;12.43;;;;;;;8.40;nan;-24051.78;5014610;28;20180;-72
2022/12/23 11:37:48;;;;;;;33.08;12.88;;;;;;;8.81;nan;-24063.09;5014733;28;20172;-71
2022/12/23 11:40:23;;;;;;;27.00;10.70;;;;;;;8.89;nan;-24065.34;5014750;28;20187;-71
2022/12/23 11:42:53;;;;;;;27.23;12.27;;;;;;;8.64;nan;-24058.28;5014605;28;20164;-71
2022/12/23 11:45:24;;;;;;;25.65;13.80;;;;;;;9.00;nan;-24068.47;5014551;28;20211;-71
2022/12/23 11:47:49;;;;;;;28.75;14.00;;;;;;;9.18;nan;-24073.41;5014595;28;20168;-70
2022/12/23 11:50:34;;;;;;;32.45;13.52;;;;;;;9.22;nan;-24074.69;5014580;28;20169;-71
2022/12/23 11:53:21;;;;;;;25.30;12.80;;;;;;;9.07;nan;-24070.31;5014224;28;20254;-70
2022/12/23 11:55:58;;;;;;;22.13;12.63;;;;;;;8.75;nan;-24061.53;5014264;28;20636;-71
2022/12/23 11:58:24;;;;;;;28.73;12.63;;;;;;;8.80;nan;-24062.81;5019325;28;20179;-70
2022/12/23 12:00:57;;;;;;;26.17;12.93;;;;;;;8.85;nan;-24064.38;5012347;28;20199;-71
2022/12/23 12:03:30;;;;;;;25.80;12.07;;;;;;;8.50;nan;-24054.31;5013900;28;20227;-71
2022/12/23 12:06:02;;;;;;;23.20;12.18;;;;;;;8.56;nan;-24056.03;5015820;28;20206;-71
2022/12/23 12:08:32;;;;;;;26.67;12.02;;;;;;;8.64;nan;-24058.44;5012594;28;20569;-71
2022/12/23 12:11:16;;;;;;;27.35;13.95;;;;;;;8.93;nan;-24066.34;5014046;28;20176;-71
2022/12/23 12:13:46;;;;;;;26.52;13.32;;;;;;;9.10;nan;-24071.16;5012436;28;20183;-71
2022/12/23 12:16:50;;;;;;;33.70;13.73;;;;;;;9.19;nan;-24073.84;5014251;28;20184;-70
2022/12/23 12:19:18;;;;;;;32.17;14.73;;;;;;;9.27;nan;-24076.09;5013754;28;20175;-70
2022/12/23 12:21:46;;;;;;;25.00;13.30;;;;;;;9.25;nan;-24075.41;5018064;28;20183;-71